الصفحة الرئيسية
METAR-TAF:

METAR-TAF

مطار :

مطار مالابو

مالابو, غينيا الاستوائية

دائرة عرض: 03-45-18N, خط طول: 08-42-31E, ارتفاع: 23 متر

مراقبة الطقس الحالي

تاريخ ووقت الإصدار 31 دقيقة قبل الساعة 12:00UTC
ريح 6 عقدة من الشمال/الشمال الغربي, الاتجاه يتراوح بين الغرب/الشمال الغربي و الشمال
درجة الحرارة 31°درجة مئوية
الرطوبة 71%
ضغط 1010 hPa
الرؤية 10 كم أو أكثر
غيوم متفرقة على ارتفاع 1000 قدم

METAR: FGSL 171200Z 33006KT 300V010 9999 SCT010 31/25 Q1010 NOSIG

زمن: 13:31 (12:31 UTC)

توقعات

تاريخ ووقت الإصدار 1ساعة و 31 دقيقة قبل الساعة 11:00UTC
التوقعات صالحة من17 الساعة 12 UTC إلى 18 الساعة 18 UTC
ريح 8 عقدة من الغرب/الجنوب الغربي
الرؤية 10 كم أو أكثر
غيوم متفرقة على ارتفاع 1000 قدم
غيوم قليلة على ارتفاع 2000 قدم, مزنة ركامية.
مؤقت
من 17 الساعة 20 UTC إلى 18 الساعة 06 UTC
عاصفة رعدية
نظرية الاحتمالات 30%
من 18 الساعة 12 UTC إلى 18 الساعة 18 UTC
غيوم مفككة على ارتفاع 1000 قدم
غيوم قليلة على ارتفاع 2000 قدم, مزنة ركامية.

TAF: FGSL 171100Z 1712/1818 24008KT 9999 SCT010 FEW020CB TEMPO 1720/1806 TS PROB30 1812/1818 BKN010 FEW020CB

أرصاد الطقس والتوقعات من أكثر من 4000 مطار (تقارير الطقس للمطار METAR والتنبؤ بالطقس بالمطارTAF).

المحطات المتاحة هي النقط الصفراء والحمراء على الخريطة.

حرك المؤشر فوق النقطة لمعرفة اسم المحطة.

ثم انقر لمعرفة أرصاد وتوقعات الطقس.

لتغيير الخارطة: اضغط على الأزرار الخضراء مع رمز الصليب الأسود للتكبير. على الزر الأخضر مع شرطة للتصغير، أو على الأسهم الخضراء للخرائط المجاورة.


METAR-TAF: